Amstetten, Austria

7:24 PM CEST on October 21, 2014 (GMT +0200)
rural area near the river | Change Station
CLOSE
Current Station
Personal Weather Station
Location: Zehnbach, NIEDERöSTERREICH
Elevation: 974 ft
Nearby Weather Stations

Elev 974 ft 48.05 °N, 15.13 °E | Updated 4 minutes ago

Light Rain Showers
Light Showers Rain
55.4 °F
Feels Like 55.4 °F
N
0.9
Wind Variable Wind from ESE
Gusts 2.0 mph

Today
High -- | Low -- °F
--% Chance of Precip.
Yesterday
High -- | Low -- °F
Precip. -- in
7:28 AM 6:01 PM
Waning Crescent, 5% visible
Pressure 29.74 in
Visibility 6.2 miles
Clouds Few 1400 ft
Scattered Clouds 6200 ft
Mostly Cloudy 10000 ft
Dew Point 54 °F
Humidity 95%
Rainfall 0.37 in
Snow Depth Not available.
UV 0.0 out of 12
Pollen Not available.
Air Quality Not available.
Flu Activity Not available.
METAR LOWL 211650Z 08004KT 060V130 9999 -SHRA FEW014 SCT062 BKN100 13/12 Q1007 NOSIG

More Conditions Fewer Conditions

Pressure 29.74 in
Visibility 6.2 miles
Clouds Few 1400 ft
Scattered Clouds 6200 ft
Mostly Cloudy 10000 ft
Dew Point 54 °F
Humidity 95%
Rainfall 0.37 in
Snow Depth Not available.
UV 0.0 out of 12
Pollen Not available.
Air Quality Not available.
Flu Activity Not available.
METAR LOWL 211650Z 08004KT 060V130 9999 -SHRA FEW014 SCT062 BKN100 13/12 Q1007 NOSIG

More Conditions Fewer Conditions

10-Day Weather Forecast

Almanac

Astronomy

Oct. 21, 2014 Rise Set
Actual Time 7:28 AM CEST 6:01 PM CEST
Civil Twilight 6:56 AM CEST 6:32 PM CEST
Nautical Twilight 6:20 AM CEST 7:08 PM CEST
Astronomical Twilight 5:44 AM CEST 7:44 PM CEST
Moon 4:45 AM CEST 4:54 PM CEST
Length of Visible Light 11h 35m
Length of Day
10h 32m
Tomorrow will be 3m 19s shorter.
Waning Crescent, 5% of the Moon is Illuminated
Today
Waning Crescent
Oct 23
New
Oct 30
First Quarter
Nov 6
Full
Nov 14
Last Quarter

Today's Extremes

Country Highs Country Lows

Community

WunderPhotos

Upload Photos

1,763,726 photos uploaded!

Nearby

Snow Depth

Not available.

Earthquake Activity

City Distance Mag. Time & Date
No recent earthquake activity has been reported nearby.
Minimum magnitude displayed is 2.5.

Coastal Water Temperatures

Place Temperature
No Stations Reporting

Nearby Weather Stations